sensor_id;sensor_type;location;lat;lon;timestamp;temperature;humidity
24844;DHT22;12921;51.392;12.240;2022-10-31T00:01:21;10.90;99.90
24844;DHT22;12921;51.392;12.240;2022-10-31T00:03:47;10.90;99.90
24844;DHT22;12921;51.392;12.240;2022-10-31T00:06:14;10.90;99.90
24844;DHT22;12921;51.392;12.240;2022-10-31T00:08:39;10.80;99.90
24844;DHT22;12921;51.392;12.240;2022-10-31T00:11:09;10.80;99.90
24844;DHT22;12921;51.392;12.240;2022-10-31T00:13:35;10.70;99.90
24844;DHT22;12921;51.392;12.240;2022-10-31T00:16:01;10.70;99.90
24844;DHT22;12921;51.392;12.240;2022-10-31T00:18:26;10.70;99.90
24844;DHT22;12921;51.392;12.240;2022-10-31T00:20:59;10.60;99.90
24844;DHT22;12921;51.392;12.240;2022-10-31T00:23:25;10.60;99.90
24844;DHT22;12921;51.392;12.240;2022-10-31T00:25:51;10.70;99.90
24844;DHT22;12921;51.392;12.240;2022-10-31T00:28:17;10.70;99.90
24844;DHT22;12921;51.392;12.240;2022-10-31T00:30:42;10.70;99.90
24844;DHT22;12921;51.392;12.240;2022-10-31T00:33:08;10.60;99.90
24844;DHT22;12921;51.392;12.240;2022-10-31T00:35:34;10.60;99.90
24844;DHT22;12921;51.392;12.240;2022-10-31T00:37:59;10.60;99.90
24844;DHT22;12921;51.392;12.240;2022-10-31T00:40:25;10.60;99.90
24844;DHT22;12921;51.392;12.240;2022-10-31T00:42:51;10.60;99.90
24844;DHT22;12921;51.392;12.240;2022-10-31T00:45:16;10.60;99.90
24844;DHT22;12921;51.392;12.240;2022-10-31T00:47:42;10.60;99.90
24844;DHT22;12921;51.392;12.240;2022-10-31T00:50:08;10.70;99.90
24844;DHT22;12921;51.392;12.240;2022-10-31T00:52:34;10.80;99.90
24844;DHT22;12921;51.392;12.240;2022-10-31T00:54:59;10.80;99.90
24844;DHT22;12921;51.392;12.240;2022-10-31T00:57:25;10.90;99.90
24844;DHT22;12921;51.392;12.240;2022-10-31T00:59:51;10.90;99.90
24844;DHT22;12921;51.392;12.240;2022-10-31T01:02:21;10.90;99.90
24844;DHT22;12921;51.392;12.240;2022-10-31T01:04:47;11.00;99.90
24844;DHT22;12921;51.392;12.240;2022-10-31T01:07:14;11.00;99.90
24844;DHT22;12921;51.392;12.240;2022-10-31T01:09:51;11.00;99.90
24844;DHT22;12921;51.392;12.240;2022-10-31T01:12:17;11.10;99.90
24844;DHT22;12921;51.392;12.240;2022-10-31T01:14:44;11.20;99.90
24844;DHT22;12921;51.392;12.240;2022-10-31T01:17:11;11.20;99.90
24844;DHT22;12921;51.392;12.240;2022-10-31T01:19:37;11.20;99.90
24844;DHT22;12921;51.392;12.240;2022-10-31T01:22:02;11.20;99.90
24844;DHT22;12921;51.392;12.240;2022-10-31T01:24:28;11.20;99.90
24844;DHT22;12921;51.392;12.240;2022-10-31T01:26:53;11.10;99.90
24844;DHT22;12921;51.392;12.240;2022-10-31T01:29:19;11.10;99.90
24844;DHT22;12921;51.392;12.240;2022-10-31T01:31:45;11.10;99.90
24844;DHT22;12921;51.392;12.240;2022-10-31T01:34:13;11.10;99.90
24844;DHT22;12921;51.392;12.240;2022-10-31T01:36:40;11.10;99.90
24844;DHT22;12921;51.392;12.240;2022-10-31T01:39:09;11.10;99.90
24844;DHT22;12921;51.392;12.240;2022-10-31T01:41:37;11.00;99.90
24844;DHT22;12921;51.392;12.240;2022-10-31T01:49:39;10.90;99.90
24844;DHT22;12921;51.392;12.240;2022-10-31T01:54:37;10.70;99.90
24844;DHT22;12921;51.392;12.240;2022-10-31T01:57:04;10.70;99.90
24844;DHT22;12921;51.392;12.240;2022-10-31T01:59:35;10.60;99.90
24844;DHT22;12921;51.392;12.240;2022-10-31T02:02:02;10.60;99.90
24844;DHT22;12921;51.392;12.240;2022-10-31T02:04:27;10.50;99.90
24844;DHT22;12921;51.392;12.240;2022-10-31T02:07:10;10.50;99.90
24844;DHT22;12921;51.392;12.240;2022-10-31T02:09:37;10.40;99.90
24844;DHT22;12921;51.392;12.240;2022-10-31T02:12:03;10.30;99.90
24844;DHT22;12921;51.392;12.240;2022-10-31T02:14:30;10.30;99.90
24844;DHT22;12921;51.392;12.240;2022-10-31T02:16:57;10.20;99.90
24844;DHT22;12921;51.392;12.240;2022-10-31T02:22:40;10.20;99.90
24844;DHT22;12921;51.392;12.240;2022-10-31T02:25:20;10.10;99.90
24844;DHT22;12921;51.392;12.240;2022-10-31T02:30:27;10.00;99.90
24844;DHT22;12921;51.392;12.240;2022-10-31T02:33:25;10.00;99.90
24844;DHT22;12921;51.392;12.240;2022-10-31T02:36:05;9.90;99.90
24844;DHT22;12921;51.392;12.240;2022-10-31T02:41:24;9.70;99.90
24844;DHT22;12921;51.392;12.240;2022-10-31T02:46:33;9.60;99.90
24844;DHT22;12921;51.392;12.240;2022-10-31T02:49:05;9.50;99.90
24844;DHT22;12921;51.392;12.240;2022-10-31T02:51:33;9.50;99.90
24844;DHT22;12921;51.392;12.240;2022-10-31T02:53:59;9.40;99.90
24844;DHT22;12921;51.392;12.240;2022-10-31T02:56:24;9.40;99.90
24844;DHT22;12921;51.392;12.240;2022-10-31T02:59:02;9.30;99.90
24844;DHT22;12921;51.392;12.240;2022-10-31T03:01:47;9.20;99.90
24844;DHT22;12921;51.392;12.240;2022-10-31T03:09:55;9.20;99.90
24844;DHT22;12921;51.392;12.240;2022-10-31T03:18:13;9.30;99.90
24844;DHT22;12921;51.392;12.240;2022-10-31T03:20:44;9.20;99.90
24844;DHT22;12921;51.392;12.240;2022-10-31T03:23:14;9.10;99.90
24844;DHT22;12921;51.392;12.240;2022-10-31T03:25:42;9.10;99.90
24844;DHT22;12921;51.392;12.240;2022-10-31T03:28:11;9.00;99.90
24844;DHT22;12921;51.392;12.240;2022-10-31T03:30:39;9.00;99.90
24844;DHT22;12921;51.392;12.240;2022-10-31T03:33:12;8.90;99.90
24844;DHT22;12921;51.392;12.240;2022-10-31T03:35:41;8.90;99.90
24844;DHT22;12921;51.392;12.240;2022-10-31T03:38:09;8.90;99.90
24844;DHT22;12921;51.392;12.240;2022-10-31T03:40:37;8.90;99.90
24844;DHT22;12921;51.392;12.240;2022-10-31T03:43:06;8.90;99.90
24844;DHT22;12921;51.392;12.240;2022-10-31T03:45:38;8.90;99.90
24844;DHT22;12921;51.392;12.240;2022-10-31T03:48:06;8.80;99.90
24844;DHT22;12921;51.392;12.240;2022-10-31T03:54:07;8.70;99.90
24844;DHT22;12921;51.392;12.240;2022-10-31T03:56:19;8.60;99.90
24844;DHT22;12921;51.392;12.240;2022-10-31T03:58:52;8.60;99.90
24844;DHT22;12921;51.392;12.240;2022-10-31T04:01:21;8.60;99.90
24844;DHT22;12921;51.392;12.240;2022-10-31T04:03:48;8.60;99.90
24844;DHT22;12921;51.392;12.240;2022-10-31T04:06:16;8.60;99.90
24844;DHT22;12921;51.392;12.240;2022-10-31T04:08:54;8.60;99.90
24844;DHT22;12921;51.392;12.240;2022-10-31T04:11:25;8.60;99.90
24844;DHT22;12921;51.392;12.240;2022-10-31T04:13:53;8.50;99.90
24844;DHT22;12921;51.392;12.240;2022-10-31T04:16:20;8.50;99.90
24844;DHT22;12921;51.392;12.240;2022-10-31T04:18:47;8.50;99.90
24844;DHT22;12921;51.392;12.240;2022-10-31T04:21:12;8.40;99.90
24844;DHT22;12921;51.392;12.240;2022-10-31T04:23:38;8.40;99.90
24844;DHT22;12921;51.392;12.240;2022-10-31T04:26:04;8.40;99.90
24844;DHT22;12921;51.392;12.240;2022-10-31T04:28:29;8.40;99.90
24844;DHT22;12921;51.392;12.240;2022-10-31T04:30:55;8.40;99.90
24844;DHT22;12921;51.392;12.240;2022-10-31T04:33:21;8.40;99.90
24844;DHT22;12921;51.392;12.240;2022-10-31T04:35:46;8.40;99.90
24844;DHT22;12921;51.392;12.240;2022-10-31T04:38:12;8.50;99.90
24844;DHT22;12921;51.392;12.240;2022-10-31T04:40:38;8.50;99.90
24844;DHT22;12921;51.392;12.240;2022-10-31T04:43:03;8.50;99.90
24844;DHT22;12921;51.392;12.240;2022-10-31T04:45:29;8.50;99.90
24844;DHT22;12921;51.392;12.240;2022-10-31T04:47:54;8.40;99.90
24844;DHT22;12921;51.392;12.240;2022-10-31T04:50:20;8.40;99.90
24844;DHT22;12921;51.392;12.240;2022-10-31T04:52:46;8.30;99.90
24844;DHT22;12921;51.392;12.240;2022-10-31T04:55:12;8.20;99.90
24844;DHT22;12921;51.392;12.240;2022-10-31T04:57:43;8.20;99.90
24844;DHT22;12921;51.392;12.240;2022-10-31T05:00:11;8.20;99.90
24844;DHT22;12921;51.392;12.240;2022-10-31T05:05:09;8.20;99.90
24844;DHT22;12921;51.392;12.240;2022-10-31T05:07:41;8.20;99.90
24844;DHT22;12921;51.392;12.240;2022-10-31T05:10:12;8.20;99.90
24844;DHT22;12921;51.392;12.240;2022-10-31T05:12:44;8.20;99.90
24844;DHT22;12921;51.392;12.240;2022-10-31T05:15:10;8.20;99.90
24844;DHT22;12921;51.392;12.240;2022-10-31T05:17:35;8.20;99.90
24844;DHT22;12921;51.392;12.240;2022-10-31T05:20:01;8.20;99.90
24844;DHT22;12921;51.392;12.240;2022-10-31T05:22:27;8.20;99.90
24844;DHT22;12921;51.392;12.240;2022-10-31T05:24:52;8.20;99.90
24844;DHT22;12921;51.392;12.240;2022-10-31T05:27:18;8.30;99.90
24844;DHT22;12921;51.392;12.240;2022-10-31T05:29:43;8.30;99.90
24844;DHT22;12921;51.392;12.240;2022-10-31T05:32:09;8.20;99.90
24844;DHT22;12921;51.392;12.240;2022-10-31T05:34:34;8.20;99.90
24844;DHT22;12921;51.392;12.240;2022-10-31T05:37:00;8.20;99.90
24844;DHT22;12921;51.392;12.240;2022-10-31T05:39:25;8.10;99.90
24844;DHT22;12921;51.392;12.240;2022-10-31T05:41:51;8.10;99.90
24844;DHT22;12921;51.392;12.240;2022-10-31T05:44:17;8.00;99.90
24844;DHT22;12921;51.392;12.240;2022-10-31T05:46:42;8.10;99.90
24844;DHT22;12921;51.392;12.240;2022-10-31T05:49:08;8.20;99.90
24844;DHT22;12921;51.392;12.240;2022-10-31T05:51:33;8.10;99.90
24844;DHT22;12921;51.392;12.240;2022-10-31T05:53:59;8.00;99.90
24844;DHT22;12921;51.392;12.240;2022-10-31T05:56:24;7.90;99.90
24844;DHT22;12921;51.392;12.240;2022-10-31T05:58:50;7.80;99.90
24844;DHT22;12921;51.392;12.240;2022-10-31T06:01:15;7.70;99.90
24844;DHT22;12921;51.392;12.240;2022-10-31T06:03:41;7.70;99.90
24844;DHT22;12921;51.392;12.240;2022-10-31T06:06:07;7.70;99.90
24844;DHT22;12921;51.392;12.240;2022-10-31T06:08:32;7.70;99.90
24844;DHT22;12921;51.392;12.240;2022-10-31T06:10:58;7.70;99.90
24844;DHT22;12921;51.392;12.240;2022-10-31T06:13:23;7.60;99.90
24844;DHT22;12921;51.392;12.240;2022-10-31T06:15:49;7.60;99.90
24844;DHT22;12921;51.392;12.240;2022-10-31T06:18:15;7.70;99.90
24844;DHT22;12921;51.392;12.240;2022-10-31T06:20:40;7.70;99.90
24844;DHT22;12921;51.392;12.240;2022-10-31T06:23:06;7.70;99.90
24844;DHT22;12921;51.392;12.240;2022-10-31T06:25:32;7.80;99.90
24844;DHT22;12921;51.392;12.240;2022-10-31T06:27:58;7.90;99.90
24844;DHT22;12921;51.392;12.240;2022-10-31T06:30:24;8.00;99.90
24844;DHT22;12921;51.392;12.240;2022-10-31T06:32:49;8.00;99.90
24844;DHT22;12921;51.392;12.240;2022-10-31T06:35:15;8.10;99.90
24844;DHT22;12921;51.392;12.240;2022-10-31T06:37:41;8.10;99.90
24844;DHT22;12921;51.392;12.240;2022-10-31T06:40:07;8.20;99.90
24844;DHT22;12921;51.392;12.240;2022-10-31T06:42:32;8.30;99.90
24844;DHT22;12921;51.392;12.240;2022-10-31T06:44:58;8.40;99.90
24844;DHT22;12921;51.392;12.240;2022-10-31T06:47:24;8.60;99.90
24844;DHT22;12921;51.392;12.240;2022-10-31T06:49:49;8.70;99.90
24844;DHT22;12921;51.392;12.240;2022-10-31T06:52:15;8.90;99.90
24844;DHT22;12921;51.392;12.240;2022-10-31T06:54:41;9.00;99.90
24844;DHT22;12921;51.392;12.240;2022-10-31T06:57:06;9.10;99.90
24844;DHT22;12921;51.392;12.240;2022-10-31T06:59:32;9.20;99.90
24844;DHT22;12921;51.392;12.240;2022-10-31T07:01:58;9.30;99.90
24844;DHT22;12921;51.392;12.240;2022-10-31T07:04:23;9.40;99.90
24844;DHT22;12921;51.392;12.240;2022-10-31T07:06:52;9.50;99.90
24844;DHT22;12921;51.392;12.240;2022-10-31T07:09:18;9.60;99.90
24844;DHT22;12921;51.392;12.240;2022-10-31T07:11:44;9.70;99.90
24844;DHT22;12921;51.392;12.240;2022-10-31T07:14:09;10.00;99.90
24844;DHT22;12921;51.392;12.240;2022-10-31T07:16:35;10.20;99.90
24844;DHT22;12921;51.392;12.240;2022-10-31T07:19:00;10.50;99.90
24844;DHT22;12921;51.392;12.240;2022-10-31T07:21:26;10.70;99.90
24844;DHT22;12921;51.392;12.240;2022-10-31T07:23:51;11.10;99.90
24844;DHT22;12921;51.392;12.240;2022-10-31T07:26:17;11.30;99.90
24844;DHT22;12921;51.392;12.240;2022-10-31T07:28:43;11.60;99.90
24844;DHT22;12921;51.392;12.240;2022-10-31T07:31:08;11.80;99.90
24844;DHT22;12921;51.392;12.240;2022-10-31T07:33:34;11.90;99.90
24844;DHT22;12921;51.392;12.240;2022-10-31T07:36:00;12.00;99.90
24844;DHT22;12921;51.392;12.240;2022-10-31T07:38:25;12.30;99.90
24844;DHT22;12921;51.392;12.240;2022-10-31T07:40:51;12.50;99.90
24844;DHT22;12921;51.392;12.240;2022-10-31T07:43:20;12.70;99.90
24844;DHT22;12921;51.392;12.240;2022-10-31T07:45:52;13.00;99.90
24844;DHT22;12921;51.392;12.240;2022-10-31T07:48:18;13.30;99.90
24844;DHT22;12921;51.392;12.240;2022-10-31T07:50:44;13.60;99.90
24844;DHT22;12921;51.392;12.240;2022-10-31T07:53:12;13.90;99.90
